Richmond, VA (23238)

5:48 AM EDT on July 05, 2015 (GMT -0400)
Tuckahoe Village | | Change Station
CLOSE
Current Station
Personal Weather Station
Location: Henrico, VA
Elevation: 164 ft
Nearby Weather Stations
Active Advisory: Special Statement

Elev 164 ft 37.61 °N, 77.62 °W | Updated 2 minutes ago

Fog
Fog
69.8 °F
Feels Like 69.8 °F
N
0.0
Wind Variable Wind from ENE
Gusts 0.0 mph

Today
High -- | Low -- °F
--% Chance of Precip.
Yesterday
High -- | Low -- °F
Precip. -- in
5:54 AM 8:35 PM
Waning Gibbous, 86% visible
Pressure 30.07 in
Visibility 0.2 miles
Clouds
Dew Point 70 °F
Humidity 99%
Rainfall 0.00 in
Snow Depth Not available.
UV Not available.
Pollen 1.30 out of 12
Air Quality Not available.
Flu Activity Not available.
METAR KRIC 050854Z 04003KT 1/4SM R34/3000V3500FT FG VV002 21/20 A3006 RMK AO2 SLP182 T02060200 53009

More Conditions Fewer Conditions

Pressure 30.07 in
Visibility 0.2 miles
Clouds
Dew Point 70 °F
Humidity 99%
Rainfall 0.00 in
Snow Depth Not available.
UV Not available.
Pollen 1.30 out of 12
Air Quality Not available.
Flu Activity Not available.
METAR KRIC 050854Z 04003KT 1/4SM R34/3000V3500FT FG VV002 21/20 A3006 RMK AO2 SLP182 T02060200 53009

More Conditions Fewer Conditions

10-Day Weather Forecast

×

Almanac

Astronomy

Jul. 05, 2015 Rise Set
Actual Time
Civil Twilight
Nautical Twilight
Astronomical Twilight
Moon
Length of Visible Light
Length of Day
Tomorrow will be .
, % of the Moon is Illuminated

Today's Extremes

State Highs State Lows

Community

WunderPhotos

Upload Photos

1,835,218 photos uploaded!

WunderBlogs® & News

Nearby

Air Quality

  Air Quality AQ Index Pollutant
Not available.

Snow Depth

Station Depth Elevation

Earthquake Activity

City Distance Mag. Time & Date
Minimum magnitude displayed is 2.5.

Coastal Water Temperatures

Place Temperature

Stations

Nearby Weather Stations

Station Location Temp. Windchill Dew Point Humidity Wind Precip. Elev Updated Type
                   
Special Statement
Statement as of 5:42 AM EDT on July 05, 2015

Areas of fog will persist across central Virginia through the
early morning hours. Visibilities will be reduced to 1/2 mile or
less in many places. The fog is expected to dissipate after 8 am.

Motorists should be alert for sudden changes in visibility due to
the areas of dense fog. Drive at reduced speeds and use low beam
headlights only.


25

542 am EDT sun Jul 5 2015

Areas of fog will persist across central Virginia through the
early morning hours. Visibilities will be reduced to 1/2 mile or
less in many places. The fog is expected to dissipate after 8 am.

Motorists should be alert for sudden changes in visibility due to
the areas of dense fog. Drive at reduced speeds and use low beam
headlights only.


25